sensor_id;sensor_type;location;lat;lon;timestamp;pressure;altitude;pressure_sealevel;temperature
73894;BMP280;62699;50.534;12.784;2024-03-22T00:04:03;96888.91;;;7.67
73894;BMP280;62699;50.534;12.784;2024-03-22T00:09:03;96881.03;;;7.64
73894;BMP280;62699;50.534;12.784;2024-03-22T00:14:03;96875.41;;;7.62
73894;BMP280;62699;50.534;12.784;2024-03-22T00:19:03;96867.69;;;7.55
73894;BMP280;62699;50.534;12.784;2024-03-22T00:24:04;96867.38;;;7.38
73894;BMP280;62699;50.534;12.784;2024-03-22T00:29:04;96852.44;;;7.13
73894;BMP280;62699;50.534;12.784;2024-03-22T00:34:05;96860.78;;;6.82
73894;BMP280;62699;50.534;12.784;2024-03-22T00:39:05;96845.88;;;6.48
73894;BMP280;62699;50.534;12.784;2024-03-22T00:44:05;96844.44;;;6.20
73894;BMP280;62699;50.534;12.784;2024-03-22T00:49:05;96846.53;;;5.98
73894;BMP280;62699;50.534;12.784;2024-03-22T00:54:06;96846.66;;;5.76
73894;BMP280;62699;50.534;12.784;2024-03-22T00:59:06;96838.47;;;5.52
73894;BMP280;62699;50.534;12.784;2024-03-22T01:04:06;96832.03;;;5.31
73894;BMP280;62699;50.534;12.784;2024-03-22T01:09:09;96835.09;;;5.12
73894;BMP280;62699;50.534;12.784;2024-03-22T01:14:09;96822.88;;;4.92
73894;BMP280;62699;50.534;12.784;2024-03-22T01:19:10;96824.13;;;4.79
73894;BMP280;62699;50.534;12.784;2024-03-22T01:24:10;96821.28;;;4.64
73894;BMP280;62699;50.534;12.784;2024-03-22T01:29:10;96820.50;;;4.54
73894;BMP280;62699;50.534;12.784;2024-03-22T01:34:10;96807.97;;;4.42
73894;BMP280;62699;50.534;12.784;2024-03-22T01:39:11;96809.16;;;4.41
73894;BMP280;62699;50.534;12.784;2024-03-22T01:44:11;96802.75;;;4.39
73894;BMP280;62699;50.534;12.784;2024-03-22T01:49:15;96792.72;;;4.21
73894;BMP280;62699;50.534;12.784;2024-03-22T01:54:16;96794.53;;;4.02
73894;BMP280;62699;50.534;12.784;2024-03-22T01:59:17;96787.06;;;3.97
73894;BMP280;62699;50.534;12.784;2024-03-22T02:04:18;96785.91;;;3.98
73894;BMP280;62699;50.534;12.784;2024-03-22T02:09:18;96773.75;;;3.97
73894;BMP280;62699;50.534;12.784;2024-03-22T02:14:21;96765.34;;;3.99
73894;BMP280;62699;50.534;12.784;2024-03-22T02:19:21;96750.25;;;3.96
73894;BMP280;62699;50.534;12.784;2024-03-22T02:24:21;96747.00;;;4.01
73894;BMP280;62699;50.534;12.784;2024-03-22T02:29:21;96743.66;;;4.09
73894;BMP280;62699;50.534;12.784;2024-03-22T02:34:22;96725.06;;;4.18
73894;BMP280;62699;50.534;12.784;2024-03-22T02:39:22;96727.66;;;4.31
73894;BMP280;62699;50.534;12.784;2024-03-22T02:44:22;96716.59;;;4.42
73894;BMP280;62699;50.534;12.784;2024-03-22T02:49:23;96710.56;;;4.50
73894;BMP280;62699;50.534;12.784;2024-03-22T02:54:24;96708.53;;;4.54
73894;BMP280;62699;50.534;12.784;2024-03-22T02:59:28;96712.06;;;4.60
73894;BMP280;62699;50.534;12.784;2024-03-22T03:04:28;96702.44;;;4.63
73894;BMP280;62699;50.534;12.784;2024-03-22T03:09:29;96698.28;;;4.62
73894;BMP280;62699;50.534;12.784;2024-03-22T03:14:29;96699.63;;;4.57
73894;BMP280;62699;50.534;12.784;2024-03-22T03:19:29;96703.19;;;4.54
73894;BMP280;62699;50.534;12.784;2024-03-22T03:24:30;96698.59;;;4.55
73894;BMP280;62699;50.534;12.784;2024-03-22T03:29:30;96674.28;;;4.53
73894;BMP280;62699;50.534;12.784;2024-03-22T03:34:30;96671.94;;;4.55
73894;BMP280;62699;50.534;12.784;2024-03-22T03:39:31;96671.00;;;4.58
73894;BMP280;62699;50.534;12.784;2024-03-22T03:44:31;96672.06;;;4.60
73894;BMP280;62699;50.534;12.784;2024-03-22T03:49:31;96659.78;;;4.63
73894;BMP280;62699;50.534;12.784;2024-03-22T03:54:32;96662.31;;;4.67
73894;BMP280;62699;50.534;12.784;2024-03-22T03:59:32;96675.81;;;4.72
73894;BMP280;62699;50.534;12.784;2024-03-22T04:04:32;96666.66;;;4.73
73894;BMP280;62699;50.534;12.784;2024-03-22T04:09:33;96667.34;;;4.74
73894;BMP280;62699;50.534;12.784;2024-03-22T04:14:33;96667.81;;;4.72
73894;BMP280;62699;50.534;12.784;2024-03-22T04:19:34;96664.41;;;4.72
73894;BMP280;62699;50.534;12.784;2024-03-22T04:24:34;96666.66;;;4.73
73894;BMP280;62699;50.534;12.784;2024-03-22T04:29:34;96663.81;;;4.77
73894;BMP280;62699;50.534;12.784;2024-03-22T04:34:34;96664.09;;;4.79
73894;BMP280;62699;50.534;12.784;2024-03-22T04:39:35;96663.34;;;4.78
73894;BMP280;62699;50.534;12.784;2024-03-22T04:44:36;96660.41;;;4.76
73894;BMP280;62699;50.534;12.784;2024-03-22T04:49:36;96657.31;;;4.78
73894;BMP280;62699;50.534;12.784;2024-03-22T04:54:37;96648.56;;;4.77
73894;BMP280;62699;50.534;12.784;2024-03-22T04:59:37;96648.84;;;4.79
73894;BMP280;62699;50.534;12.784;2024-03-22T05:04:37;96645.44;;;4.79
73894;BMP280;62699;50.534;12.784;2024-03-22T05:09:37;96639.66;;;4.80
73894;BMP280;62699;50.534;12.784;2024-03-22T05:14:38;96643.38;;;4.83
73894;BMP280;62699;50.534;12.784;2024-03-22T05:19:38;96638.66;;;4.87
73894;BMP280;62699;50.534;12.784;2024-03-22T05:24:38;96637.59;;;4.93
73894;BMP280;62699;50.534;12.784;2024-03-22T05:29:38;96626.34;;;4.98
73894;BMP280;62699;50.534;12.784;2024-03-22T05:34:39;96618.19;;;5.02
73894;BMP280;62699;50.534;12.784;2024-03-22T05:39:40;96619.22;;;5.14
73894;BMP280;62699;50.534;12.784;2024-03-22T05:44:40;96602.94;;;5.39
73894;BMP280;62699;50.534;12.784;2024-03-22T05:49:41;96609.09;;;5.54
73894;BMP280;62699;50.534;12.784;2024-03-22T05:54:41;96621.25;;;5.64
73894;BMP280;62699;50.534;12.784;2024-03-22T05:59:41;96608.63;;;5.65
73894;BMP280;62699;50.534;12.784;2024-03-22T06:04:42;96598.81;;;5.71
73894;BMP280;62699;50.534;12.784;2024-03-22T06:09:42;96601.31;;;5.83
73894;BMP280;62699;50.534;12.784;2024-03-22T06:14:46;96580.06;;;5.89
73894;BMP280;62699;50.534;12.784;2024-03-22T06:19:48;96586.34;;;6.10
73894;BMP280;62699;50.534;12.784;2024-03-22T06:24:49;96587.59;;;6.23
73894;BMP280;62699;50.534;12.784;2024-03-22T06:29:49;96578.47;;;6.39
73894;BMP280;62699;50.534;12.784;2024-03-22T06:34:49;96575.84;;;6.54
73894;BMP280;62699;50.534;12.784;2024-03-22T06:39:50;96566.91;;;6.72
73894;BMP280;62699;50.534;12.784;2024-03-22T06:44:50;96573.16;;;6.92
73894;BMP280;62699;50.534;12.784;2024-03-22T06:49:50;96566.25;;;7.15
73894;BMP280;62699;50.534;12.784;2024-03-22T06:54:50;96551.94;;;7.47
73894;BMP280;62699;50.534;12.784;2024-03-22T06:59:52;96545.72;;;7.71
73894;BMP280;62699;50.534;12.784;2024-03-22T07:04:52;96553.50;;;7.89
73894;BMP280;62699;50.534;12.784;2024-03-22T07:09:52;96550.06;;;8.23
73894;BMP280;62699;50.534;12.784;2024-03-22T07:14:53;96553.31;;;9.25
73894;BMP280;62699;50.534;12.784;2024-03-22T07:19:53;96558.00;;;12.21
73894;BMP280;62699;50.534;12.784;2024-03-22T07:24:54;96566.69;;;13.74
73894;BMP280;62699;50.534;12.784;2024-03-22T07:29:55;96576.22;;;14.93
73894;BMP280;62699;50.534;12.784;2024-03-22T07:34:55;96586.53;;;16.39
73894;BMP280;62699;50.534;12.784;2024-03-22T07:39:55;96591.03;;;18.62
73894;BMP280;62699;50.534;12.784;2024-03-22T07:44:56;96587.41;;;21.56
73894;BMP280;62699;50.534;12.784;2024-03-22T07:49:56;96567.03;;;21.76
73894;BMP280;62699;50.534;12.784;2024-03-22T07:54:56;96568.38;;;20.40
73894;BMP280;62699;50.534;12.784;2024-03-22T07:59:57;96559.69;;;20.51
73894;BMP280;62699;50.534;12.784;2024-03-22T08:04:57;96540.41;;;18.16
73894;BMP280;62699;50.534;12.784;2024-03-22T08:09:58;96539.66;;;15.65
73894;BMP280;62699;50.534;12.784;2024-03-22T08:14:59;96540.81;;;15.30
73894;BMP280;62699;50.534;12.784;2024-03-22T08:19:59;96535.66;;;14.68
73894;BMP280;62699;50.534;12.784;2024-03-22T08:24:59;96536.59;;;14.20
73894;BMP280;62699;50.534;12.784;2024-03-22T08:30:02;96527.75;;;13.58
73894;BMP280;62699;50.534;12.784;2024-03-22T08:35:04;96521.81;;;14.03
73894;BMP280;62699;50.534;12.784;2024-03-22T08:40:04;96526.84;;;14.30
73894;BMP280;62699;50.534;12.784;2024-03-22T08:45:05;96533.34;;;14.91
73894;BMP280;62699;50.534;12.784;2024-03-22T08:50:06;96532.66;;;14.40
73894;BMP280;62699;50.534;12.784;2024-03-22T08:55:07;96527.72;;;14.57
73894;BMP280;62699;50.534;12.784;2024-03-22T09:00:08;96522.56;;;14.72
73894;BMP280;62699;50.534;12.784;2024-03-22T09:05:08;96518.28;;;15.48
73894;BMP280;62699;50.534;12.784;2024-03-22T09:10:08;96517.75;;;15.23
73894;BMP280;62699;50.534;12.784;2024-03-22T09:15:09;96510.22;;;15.03
73894;BMP280;62699;50.534;12.784;2024-03-22T09:20:10;96497.03;;;14.49
73894;BMP280;62699;50.534;12.784;2024-03-22T09:25:10;96500.63;;;14.57
73894;BMP280;62699;50.534;12.784;2024-03-22T09:30:11;96496.47;;;14.38
73894;BMP280;62699;50.534;12.784;2024-03-22T09:35:11;96488.72;;;14.92
73894;BMP280;62699;50.534;12.784;2024-03-22T09:40:14;96480.59;;;15.05
73894;BMP280;62699;50.534;12.784;2024-03-22T09:45:15;96475.75;;;14.40
73894;BMP280;62699;50.534;12.784;2024-03-22T09:50:18;96480.56;;;14.79
73894;BMP280;62699;50.534;12.784;2024-03-22T09:55:22;96473.13;;;14.66
73894;BMP280;62699;50.534;12.784;2024-03-22T10:00:24;96468.03;;;14.44
73894;BMP280;62699;50.534;12.784;2024-03-22T10:05:26;96456.84;;;14.21
73894;BMP280;62699;50.534;12.784;2024-03-22T10:10:26;96446.34;;;14.63
73894;BMP280;62699;50.534;12.784;2024-03-22T10:15:26;96445.09;;;14.32
73894;BMP280;62699;50.534;12.784;2024-03-22T10:20:26;96440.16;;;14.49
73894;BMP280;62699;50.534;12.784;2024-03-22T10:25:28;96435.41;;;14.68
73894;BMP280;62699;50.534;12.784;2024-03-22T10:30:29;96426.53;;;14.68
73894;BMP280;62699;50.534;12.784;2024-03-22T10:35:31;96432.94;;;15.10
73894;BMP280;62699;50.534;12.784;2024-03-22T10:40:32;96420.94;;;14.79
73894;BMP280;62699;50.534;12.784;2024-03-22T10:45:34;96414.03;;;14.78
73894;BMP280;62699;50.534;12.784;2024-03-22T10:50:38;96421.97;;;14.12
73894;BMP280;62699;50.534;12.784;2024-03-22T10:55:42;96410.16;;;13.97
73894;BMP280;62699;50.534;12.784;2024-03-22T11:00:43;96403.81;;;14.26
73894;BMP280;62699;50.534;12.784;2024-03-22T11:05:54;96407.63;;;14.36
73894;BMP280;62699;50.534;12.784;2024-03-22T11:10:56;96395.59;;;14.76
73894;BMP280;62699;50.534;12.784;2024-03-22T11:15:58;96401.22;;;14.52
73894;BMP280;62699;50.534;12.784;2024-03-22T11:20:59;96388.16;;;14.51
73894;BMP280;62699;50.534;12.784;2024-03-22T11:26:01;96381.09;;;14.74
73894;BMP280;62699;50.534;12.784;2024-03-22T11:31:01;96374.94;;;14.73
73894;BMP280;62699;50.534;12.784;2024-03-22T11:36:03;96369.94;;;15.04
73894;BMP280;62699;50.534;12.784;2024-03-22T11:41:04;96357.13;;;15.04
73894;BMP280;62699;50.534;12.784;2024-03-22T11:46:05;96353.38;;;14.81
73894;BMP280;62699;50.534;12.784;2024-03-22T11:51:06;96355.47;;;14.75
73894;BMP280;62699;50.534;12.784;2024-03-22T11:56:08;96348.69;;;14.68
73894;BMP280;62699;50.534;12.784;2024-03-22T12:01:08;96331.38;;;14.85
73894;BMP280;62699;50.534;12.784;2024-03-22T12:06:09;96325.97;;;15.45
73894;BMP280;62699;50.534;12.784;2024-03-22T12:11:10;96322.16;;;15.61
73894;BMP280;62699;50.534;12.784;2024-03-22T12:16:10;96322.94;;;15.69
73894;BMP280;62699;50.534;12.784;2024-03-22T12:21:11;96303.34;;;15.29
73894;BMP280;62699;50.534;12.784;2024-03-22T12:26:11;96291.09;;;15.49
73894;BMP280;62699;50.534;12.784;2024-03-22T12:31:12;96278.84;;;15.76
73894;BMP280;62699;50.534;12.784;2024-03-22T12:36:12;96271.19;;;15.67
73894;BMP280;62699;50.534;12.784;2024-03-22T12:41:12;96267.47;;;15.98
73894;BMP280;62699;50.534;12.784;2024-03-22T12:46:12;96250.59;;;15.71
73894;BMP280;62699;50.534;12.784;2024-03-22T12:51:13;96254.31;;;15.82
73894;BMP280;62699;50.534;12.784;2024-03-22T12:56:13;96248.84;;;16.02
73894;BMP280;62699;50.534;12.784;2024-03-22T13:01:14;96250.50;;;16.05
73894;BMP280;62699;50.534;12.784;2024-03-22T13:06:14;96233.63;;;15.78
73894;BMP280;62699;50.534;12.784;2024-03-22T13:11:14;96229.50;;;15.85
73894;BMP280;62699;50.534;12.784;2024-03-22T13:16:15;96219.97;;;15.43
73894;BMP280;62699;50.534;12.784;2024-03-22T13:21:16;96210.19;;;15.89
73894;BMP280;62699;50.534;12.784;2024-03-22T13:26:16;96204.91;;;15.62
73894;BMP280;62699;50.534;12.784;2024-03-22T13:31:17;96189.75;;;15.67
73894;BMP280;62699;50.534;12.784;2024-03-22T13:36:17;96172.06;;;15.73
73894;BMP280;62699;50.534;12.784;2024-03-22T13:41:18;96165.63;;;15.84
73894;BMP280;62699;50.534;12.784;2024-03-22T13:46:18;96158.03;;;16.18
73894;BMP280;62699;50.534;12.784;2024-03-22T13:51:18;96144.97;;;16.53
73894;BMP280;62699;50.534;12.784;2024-03-22T13:56:19;96139.19;;;16.64
73894;BMP280;62699;50.534;12.784;2024-03-22T14:01:19;96137.59;;;16.76
73894;BMP280;62699;50.534;12.784;2024-03-22T14:06:19;96132.78;;;16.46
73894;BMP280;62699;50.534;12.784;2024-03-22T14:11:20;96136.59;;;16.43
73894;BMP280;62699;50.534;12.784;2024-03-22T14:16:20;96118.41;;;15.87
73894;BMP280;62699;50.534;12.784;2024-03-22T14:21:21;96120.91;;;15.85
73894;BMP280;62699;50.534;12.784;2024-03-22T14:26:21;96118.63;;;15.89
73894;BMP280;62699;50.534;12.784;2024-03-22T14:31:23;96112.88;;;16.00
73894;BMP280;62699;50.534;12.784;2024-03-22T14:36:23;96104.91;;;15.66
73894;BMP280;62699;50.534;12.784;2024-03-22T14:41:24;96104.03;;;15.71
73894;BMP280;62699;50.534;12.784;2024-03-22T14:46:24;96103.88;;;15.77
73894;BMP280;62699;50.534;12.784;2024-03-22T14:51:26;96094.03;;;15.38
73894;BMP280;62699;50.534;12.784;2024-03-22T14:56:27;96086.06;;;15.33
73894;BMP280;62699;50.534;12.784;2024-03-22T15:01:27;96077.94;;;15.12
73894;BMP280;62699;50.534;12.784;2024-03-22T15:06:27;96078.03;;;15.27
73894;BMP280;62699;50.534;12.784;2024-03-22T15:11:28;96075.59;;;15.16
73894;BMP280;62699;50.534;12.784;2024-03-22T15:16:29;96069.66;;;14.97
73894;BMP280;62699;50.534;12.784;2024-03-22T15:21:30;96063.03;;;14.85
73894;BMP280;62699;50.534;12.784;2024-03-22T15:26:31;96053.53;;;14.70
73894;BMP280;62699;50.534;12.784;2024-03-22T15:31:31;96051.47;;;14.63
73894;BMP280;62699;50.534;12.784;2024-03-22T15:36:32;96043.88;;;14.62
73894;BMP280;62699;50.534;12.784;2024-03-22T15:41:32;96050.53;;;14.40
73894;BMP280;62699;50.534;12.784;2024-03-22T15:46:32;96040.06;;;14.44
73894;BMP280;62699;50.534;12.784;2024-03-22T15:51:33;96041.94;;;14.49
73894;BMP280;62699;50.534;12.784;2024-03-22T15:56:33;96035.66;;;14.54
73894;BMP280;62699;50.534;12.784;2024-03-22T16:01:33;96031.44;;;14.46
73894;BMP280;62699;50.534;12.784;2024-03-22T16:06:34;96027.97;;;14.58
73894;BMP280;62699;50.534;12.784;2024-03-22T16:11:34;96029.41;;;14.59
73894;BMP280;62699;50.534;12.784;2024-03-22T16:16:34;96025.44;;;14.60
73894;BMP280;62699;50.534;12.784;2024-03-22T16:21:34;96027.53;;;14.54
73894;BMP280;62699;50.534;12.784;2024-03-22T16:26:35;96018.13;;;14.35
73894;BMP280;62699;50.534;12.784;2024-03-22T16:31:35;96024.84;;;14.20
73894;BMP280;62699;50.534;12.784;2024-03-22T16:36:35;96015.59;;;14.16
73894;BMP280;62699;50.534;12.784;2024-03-22T16:41:35;96007.91;;;14.07
73894;BMP280;62699;50.534;12.784;2024-03-22T16:46:36;96001.59;;;13.91
73894;BMP280;62699;50.534;12.784;2024-03-22T16:51:36;96005.44;;;13.82
73894;BMP280;62699;50.534;12.784;2024-03-22T16:56:36;96005.69;;;13.71
73894;BMP280;62699;50.534;12.784;2024-03-22T17:01:37;96003.94;;;13.61
73894;BMP280;62699;50.534;12.784;2024-03-22T17:06:37;96006.00;;;13.55
73894;BMP280;62699;50.534;12.784;2024-03-22T17:11:39;95996.75;;;13.50
73894;BMP280;62699;50.534;12.784;2024-03-22T17:16:39;95989.06;;;13.41
73894;BMP280;62699;50.534;12.784;2024-03-22T17:21:39;95994.34;;;13.33
73894;BMP280;62699;50.534;12.784;2024-03-22T17:26:39;95977.38;;;13.33
73894;BMP280;62699;50.534;12.784;2024-03-22T17:31:40;95978.22;;;13.28
73894;BMP280;62699;50.534;12.784;2024-03-22T17:36:40;95972.19;;;13.22
73894;BMP280;62699;50.534;12.784;2024-03-22T17:41:41;95981.66;;;13.15
73894;BMP280;62699;50.534;12.784;2024-03-22T17:46:41;95977.88;;;13.05
73894;BMP280;62699;50.534;12.784;2024-03-22T17:51:41;95973.19;;;12.93
73894;BMP280;62699;50.534;12.784;2024-03-22T17:56:42;95973.78;;;12.85
73894;BMP280;62699;50.534;12.784;2024-03-22T18:01:42;95966.50;;;12.80
73894;BMP280;62699;50.534;12.784;2024-03-22T18:06:42;95964.03;;;12.82
73894;BMP280;62699;50.534;12.784;2024-03-22T18:11:42;95958.19;;;12.78
73894;BMP280;62699;50.534;12.784;2024-03-22T18:16:43;95958.72;;;12.77
73894;BMP280;62699;50.534;12.784;2024-03-22T18:21:44;95954.66;;;12.70
73894;BMP280;62699;50.534;12.784;2024-03-22T18:26:44;95958.69;;;12.64
73894;BMP280;62699;50.534;12.784;2024-03-22T18:31:44;95958.34;;;12.54
73894;BMP280;62699;50.534;12.784;2024-03-22T18:36:45;95958.94;;;12.47
73894;BMP280;62699;50.534;12.784;2024-03-22T18:41:46;95941.06;;;12.44
73894;BMP280;62699;50.534;12.784;2024-03-22T18:46:46;95933.13;;;12.33
73894;BMP280;62699;50.534;12.784;2024-03-22T18:51:47;95938.91;;;12.24
73894;BMP280;62699;50.534;12.784;2024-03-22T18:56:48;95928.63;;;12.22
73894;BMP280;62699;50.534;12.784;2024-03-22T19:01:49;95925.72;;;12.20
73894;BMP280;62699;50.534;12.784;2024-03-22T19:06:49;95901.53;;;12.15
73894;BMP280;62699;50.534;12.784;2024-03-22T19:11:50;95903.25;;;12.12
73894;BMP280;62699;50.534;12.784;2024-03-22T19:16:50;95903.50;;;12.14
73894;BMP280;62699;50.534;12.784;2024-03-22T19:21:50;95904.81;;;12.08
73894;BMP280;62699;50.534;12.784;2024-03-22T19:26:50;95887.75;;;12.00
73894;BMP280;62699;50.534;12.784;2024-03-22T19:31:51;95890.81;;;11.90
73894;BMP280;62699;50.534;12.784;2024-03-22T19:36:51;95881.94;;;11.77
73894;BMP280;62699;50.534;12.784;2024-03-22T19:41:51;95883.25;;;11.70
73894;BMP280;62699;50.534;12.784;2024-03-22T19:46:52;95877.22;;;11.64
73894;BMP280;62699;50.534;12.784;2024-03-22T19:51:52;95866.28;;;11.57
73894;BMP280;62699;50.534;12.784;2024-03-22T19:56:53;95868.91;;;11.43
73894;BMP280;62699;50.534;12.784;2024-03-22T20:01:54;95857.25;;;11.35
73894;BMP280;62699;50.534;12.784;2024-03-22T20:06:54;95841.41;;;11.26
73894;BMP280;62699;50.534;12.784;2024-03-22T20:11:54;95833.16;;;11.19
73894;BMP280;62699;50.534;12.784;2024-03-22T20:16:54;95832.00;;;11.14
73894;BMP280;62699;50.534;12.784;2024-03-22T20:21:55;95828.13;;;11.10
73894;BMP280;62699;50.534;12.784;2024-03-22T20:26:55;95826.44;;;11.07
73894;BMP280;62699;50.534;12.784;2024-03-22T20:31:55;95819.16;;;11.01
